sensor_id;sensor_type;location;lat;lon;timestamp;P1;durP1;ratioP1;P2;durP2;ratioP2
11303;SDS011;5707;49.588;12.148;2024-01-15T00:01:16;16.02;;;14.05;;
11303;SDS011;5707;49.588;12.148;2024-01-15T00:03:41;15.43;;;12.80;;
11303;SDS011;5707;49.588;12.148;2024-01-15T00:06:07;18.83;;;14.40;;
11303;SDS011;5707;49.588;12.148;2024-01-15T00:08:32;16.25;;;14.45;;
11303;SDS011;5707;49.588;12.148;2024-01-15T00:10:58;17.52;;;13.68;;
11303;SDS011;5707;49.588;12.148;2024-01-15T00:13:24;18.27;;;14.05;;
11303;SDS011;5707;49.588;12.148;2024-01-15T00:15:49;19.48;;;15.88;;
11303;SDS011;5707;49.588;12.148;2024-01-15T00:18:15;18.45;;;13.90;;
11303;SDS011;5707;49.588;12.148;2024-01-15T00:20:40;15.52;;;13.77;;
11303;SDS011;5707;49.588;12.148;2024-01-15T00:23:06;17.25;;;15.20;;
11303;SDS011;5707;49.588;12.148;2024-01-15T00:25:32;19.23;;;15.65;;
11303;SDS011;5707;49.588;12.148;2024-01-15T00:27:57;17.80;;;15.18;;
11303;SDS011;5707;49.588;12.148;2024-01-15T00:30:23;21.45;;;15.57;;
11303;SDS011;5707;49.588;12.148;2024-01-15T00:32:48;17.08;;;14.65;;
11303;SDS011;5707;49.588;12.148;2024-01-15T00:35:14;18.00;;;14.10;;
11303;SDS011;5707;49.588;12.148;2024-01-15T00:37:39;19.13;;;14.80;;
11303;SDS011;5707;49.588;12.148;2024-01-15T00:40:05;14.73;;;10.98;;
11303;SDS011;5707;49.588;12.148;2024-01-15T00:42:32;18.58;;;15.32;;
11303;SDS011;5707;49.588;12.148;2024-01-15T00:44:58;20.48;;;15.35;;
11303;SDS011;5707;49.588;12.148;2024-01-15T00:47:24;19.13;;;16.13;;
11303;SDS011;5707;49.588;12.148;2024-01-15T00:49:49;18.17;;;15.63;;
11303;SDS011;5707;49.588;12.148;2024-01-15T00:52:15;20.45;;;17.00;;
11303;SDS011;5707;49.588;12.148;2024-01-15T00:54:40;21.98;;;15.45;;
11303;SDS011;5707;49.588;12.148;2024-01-15T00:57:06;21.70;;;15.90;;
11303;SDS011;5707;49.588;12.148;2024-01-15T00:59:31;20.73;;;15.77;;
11303;SDS011;5707;49.588;12.148;2024-01-15T01:01:57;18.85;;;14.57;;
11303;SDS011;5707;49.588;12.148;2024-01-15T01:04:22;19.95;;;16.38;;
11303;SDS011;5707;49.588;12.148;2024-01-15T01:06:48;21.50;;;16.17;;
11303;SDS011;5707;49.588;12.148;2024-01-15T01:09:14;21.33;;;16.45;;
11303;SDS011;5707;49.588;12.148;2024-01-15T01:11:39;20.23;;;16.50;;
11303;SDS011;5707;49.588;12.148;2024-01-15T01:14:05;23.08;;;17.02;;
11303;SDS011;5707;49.588;12.148;2024-01-15T01:16:31;22.10;;;16.95;;
11303;SDS011;5707;49.588;12.148;2024-01-15T01:19:03;21.05;;;16.45;;
11303;SDS011;5707;49.588;12.148;2024-01-15T01:21:30;24.60;;;17.20;;
11303;SDS011;5707;49.588;12.148;2024-01-15T01:23:55;23.48;;;18.50;;
11303;SDS011;5707;49.588;12.148;2024-01-15T01:26:21;20.70;;;16.48;;
11303;SDS011;5707;49.588;12.148;2024-01-15T01:28:46;25.77;;;18.13;;
11303;SDS011;5707;49.588;12.148;2024-01-15T01:31:12;21.73;;;16.90;;
11303;SDS011;5707;49.588;12.148;2024-01-15T01:33:38;25.17;;;18.05;;
11303;SDS011;5707;49.588;12.148;2024-01-15T01:36:08;23.35;;;17.17;;
11303;SDS011;5707;49.588;12.148;2024-01-15T01:38:34;25.73;;;18.90;;
11303;SDS011;5707;49.588;12.148;2024-01-15T01:41:01;26.73;;;18.45;;
11303;SDS011;5707;49.588;12.148;2024-01-15T01:43:26;27.08;;;18.30;;
11303;SDS011;5707;49.588;12.148;2024-01-15T01:45:52;23.60;;;16.50;;
11303;SDS011;5707;49.588;12.148;2024-01-15T01:48:20;24.40;;;17.63;;
11303;SDS011;5707;49.588;12.148;2024-01-15T01:50:46;27.73;;;18.17;;
11303;SDS011;5707;49.588;12.148;2024-01-15T01:53:12;20.35;;;16.10;;
11303;SDS011;5707;49.588;12.148;2024-01-15T01:55:38;24.70;;;18.15;;
11303;SDS011;5707;49.588;12.148;2024-01-15T01:58:04;25.70;;;18.42;;
11303;SDS011;5707;49.588;12.148;2024-01-15T02:00:30;22.60;;;17.02;;
11303;SDS011;5707;49.588;12.148;2024-01-15T02:02:56;21.27;;;16.95;;
11303;SDS011;5707;49.588;12.148;2024-01-15T02:05:22;20.17;;;17.00;;
11303;SDS011;5707;49.588;12.148;2024-01-15T02:07:48;27.92;;;19.08;;
11303;SDS011;5707;49.588;12.148;2024-01-15T02:10:14;26.92;;;18.35;;
11303;SDS011;5707;49.588;12.148;2024-01-15T02:12:39;25.73;;;17.85;;
11303;SDS011;5707;49.588;12.148;2024-01-15T02:15:05;24.17;;;18.02;;
11303;SDS011;5707;49.588;12.148;2024-01-15T02:17:31;20.65;;;17.05;;
11303;SDS011;5707;49.588;12.148;2024-01-15T02:19:56;25.58;;;16.35;;
11303;SDS011;5707;49.588;12.148;2024-01-15T02:22:22;23.75;;;16.45;;
11303;SDS011;5707;49.588;12.148;2024-01-15T02:24:48;22.38;;;16.92;;
11303;SDS011;5707;49.588;12.148;2024-01-15T02:27:13;22.70;;;17.23;;
11303;SDS011;5707;49.588;12.148;2024-01-15T02:29:39;23.30;;;17.52;;
11303;SDS011;5707;49.588;12.148;2024-01-15T02:32:05;22.80;;;16.73;;
11303;SDS011;5707;49.588;12.148;2024-01-15T02:34:34;22.35;;;17.02;;
11303;SDS011;5707;49.588;12.148;2024-01-15T02:37:00;23.83;;;17.17;;
11303;SDS011;5707;49.588;12.148;2024-01-15T02:39:25;26.02;;;16.75;;
11303;SDS011;5707;49.588;12.148;2024-01-15T02:41:51;24.92;;;16.10;;
11303;SDS011;5707;49.588;12.148;2024-01-15T02:44:16;24.90;;;17.42;;
11303;SDS011;5707;49.588;12.148;2024-01-15T02:46:42;22.42;;;16.38;;
11303;SDS011;5707;49.588;12.148;2024-01-15T02:49:07;22.45;;;16.55;;
11303;SDS011;5707;49.588;12.148;2024-01-15T02:51:33;22.30;;;15.13;;
11303;SDS011;5707;49.588;12.148;2024-01-15T02:53:59;20.42;;;15.80;;
11303;SDS011;5707;49.588;12.148;2024-01-15T02:56:24;19.58;;;15.57;;
11303;SDS011;5707;49.588;12.148;2024-01-15T02:58:50;20.15;;;14.82;;
11303;SDS011;5707;49.588;12.148;2024-01-15T03:01:18;21.50;;;16.40;;
11303;SDS011;5707;49.588;12.148;2024-01-15T03:03:44;20.48;;;15.55;;
11303;SDS011;5707;49.588;12.148;2024-01-15T03:06:09;22.00;;;15.73;;
11303;SDS011;5707;49.588;12.148;2024-01-15T03:08:35;18.23;;;14.25;;
11303;SDS011;5707;49.588;12.148;2024-01-15T03:11:01;20.17;;;15.20;;
11303;SDS011;5707;49.588;12.148;2024-01-15T03:13:26;19.85;;;14.70;;
11303;SDS011;5707;49.588;12.148;2024-01-15T03:15:52;18.65;;;15.27;;
11303;SDS011;5707;49.588;12.148;2024-01-15T03:18:17;17.40;;;14.80;;
11303;SDS011;5707;49.588;12.148;2024-01-15T03:20:43;24.20;;;16.00;;
11303;SDS011;5707;49.588;12.148;2024-01-15T03:23:08;20.75;;;15.52;;
11303;SDS011;5707;49.588;12.148;2024-01-15T03:25:34;17.70;;;14.82;;
11303;SDS011;5707;49.588;12.148;2024-01-15T03:27:59;20.90;;;15.85;;
11303;SDS011;5707;49.588;12.148;2024-01-15T03:30:25;18.15;;;14.38;;
11303;SDS011;5707;49.588;12.148;2024-01-15T03:32:50;18.55;;;15.68;;
11303;SDS011;5707;49.588;12.148;2024-01-15T03:35:16;21.50;;;16.00;;
11303;SDS011;5707;49.588;12.148;2024-01-15T03:37:41;21.63;;;16.05;;
11303;SDS011;5707;49.588;12.148;2024-01-15T03:40:07;20.02;;;15.50;;
11303;SDS011;5707;49.588;12.148;2024-01-15T03:42:33;18.67;;;14.98;;
11303;SDS011;5707;49.588;12.148;2024-01-15T03:44:59;19.95;;;15.88;;
11303;SDS011;5707;49.588;12.148;2024-01-15T03:47:24;17.23;;;14.15;;
11303;SDS011;5707;49.588;12.148;2024-01-15T03:49:51;16.05;;;14.20;;
11303;SDS011;5707;49.588;12.148;2024-01-15T03:52:16;18.27;;;13.35;;
11303;SDS011;5707;49.588;12.148;2024-01-15T03:54:42;19.00;;;14.07;;
11303;SDS011;5707;49.588;12.148;2024-01-15T03:57:07;16.77;;;14.15;;
11303;SDS011;5707;49.588;12.148;2024-01-15T03:59:33;20.60;;;15.32;;
11303;SDS011;5707;49.588;12.148;2024-01-15T04:01:58;17.08;;;13.65;;
11303;SDS011;5707;49.588;12.148;2024-01-15T04:04:24;18.63;;;14.15;;
11303;SDS011;5707;49.588;12.148;2024-01-15T04:06:49;20.48;;;15.18;;
11303;SDS011;5707;49.588;12.148;2024-01-15T04:09:15;18.77;;;14.00;;
11303;SDS011;5707;49.588;12.148;2024-01-15T04:11:41;19.15;;;14.07;;
11303;SDS011;5707;49.588;12.148;2024-01-15T04:14:06;18.73;;;14.45;;
11303;SDS011;5707;49.588;12.148;2024-01-15T04:16:32;20.75;;;15.55;;
11303;SDS011;5707;49.588;12.148;2024-01-15T04:18:57;15.93;;;12.90;;
11303;SDS011;5707;49.588;12.148;2024-01-15T04:21:23;18.40;;;13.43;;
11303;SDS011;5707;49.588;12.148;2024-01-15T04:23:48;15.73;;;12.68;;
11303;SDS011;5707;49.588;12.148;2024-01-15T04:26:14;16.35;;;12.05;;
11303;SDS011;5707;49.588;12.148;2024-01-15T04:28:39;17.30;;;13.38;;
11303;SDS011;5707;49.588;12.148;2024-01-15T04:31:05;14.32;;;12.35;;
11303;SDS011;5707;49.588;12.148;2024-01-15T04:33:31;16.50;;;12.43;;
11303;SDS011;5707;49.588;12.148;2024-01-15T04:35:56;16.10;;;12.80;;
11303;SDS011;5707;49.588;12.148;2024-01-15T04:38:26;15.30;;;12.73;;
11303;SDS011;5707;49.588;12.148;2024-01-15T04:40:51;15.07;;;12.50;;
11303;SDS011;5707;49.588;12.148;2024-01-15T04:43:17;13.75;;;12.25;;
11303;SDS011;5707;49.588;12.148;2024-01-15T04:45:42;15.50;;;11.98;;
11303;SDS011;5707;49.588;12.148;2024-01-15T04:48:08;13.75;;;12.35;;
11303;SDS011;5707;49.588;12.148;2024-01-15T04:50:33;15.25;;;12.10;;
11303;SDS011;5707;49.588;12.148;2024-01-15T04:52:59;11.88;;;10.68;;
11303;SDS011;5707;49.588;12.148;2024-01-15T04:55:24;14.02;;;11.88;;
11303;SDS011;5707;49.588;12.148;2024-01-15T04:57:50;13.55;;;12.13;;
11303;SDS011;5707;49.588;12.148;2024-01-15T05:00:15;13.80;;;11.57;;
11303;SDS011;5707;49.588;12.148;2024-01-15T05:02:41;13.20;;;11.07;;
11303;SDS011;5707;49.588;12.148;2024-01-15T05:05:07;15.88;;;11.57;;
11303;SDS011;5707;49.588;12.148;2024-01-15T05:07:32;14.48;;;11.93;;
11303;SDS011;5707;49.588;12.148;2024-01-15T05:09:58;11.57;;;10.38;;
11303;SDS011;5707;49.588;12.148;2024-01-15T05:12:24;12.18;;;10.75;;
11303;SDS011;5707;49.588;12.148;2024-01-15T05:14:49;14.40;;;11.98;;
11303;SDS011;5707;49.588;12.148;2024-01-15T05:17:15;15.75;;;12.38;;
11303;SDS011;5707;49.588;12.148;2024-01-15T05:19:41;12.48;;;10.63;;
11303;SDS011;5707;49.588;12.148;2024-01-15T05:22:06;12.63;;;11.23;;
11303;SDS011;5707;49.588;12.148;2024-01-15T05:24:32;11.32;;;10.23;;
11303;SDS011;5707;49.588;12.148;2024-01-15T05:26:57;12.30;;;9.40;;
11303;SDS011;5707;49.588;12.148;2024-01-15T05:29:23;16.95;;;11.27;;
11303;SDS011;5707;49.588;12.148;2024-01-15T05:31:48;12.10;;;10.90;;
11303;SDS011;5707;49.588;12.148;2024-01-15T05:34:14;12.30;;;10.25;;
11303;SDS011;5707;49.588;12.148;2024-01-15T05:36:39;14.18;;;10.52;;
11303;SDS011;5707;49.588;12.148;2024-01-15T05:39:05;11.70;;;10.50;;
11303;SDS011;5707;49.588;12.148;2024-01-15T05:41:31;11.60;;;10.30;;
11303;SDS011;5707;49.588;12.148;2024-01-15T05:43:57;12.10;;;10.50;;
11303;SDS011;5707;49.588;12.148;2024-01-15T05:46:22;14.63;;;11.60;;
11303;SDS011;5707;49.588;12.148;2024-01-15T05:48:48;11.40;;;10.20;;
11303;SDS011;5707;49.588;12.148;2024-01-15T05:51:13;12.80;;;10.98;;
11303;SDS011;5707;49.588;12.148;2024-01-15T05:53:39;11.07;;;9.98;;
11303;SDS011;5707;49.588;12.148;2024-01-15T05:56:06;12.65;;;10.40;;
11303;SDS011;5707;49.588;12.148;2024-01-15T05:58:32;12.20;;;10.07;;
11303;SDS011;5707;49.588;12.148;2024-01-15T06:00:57;11.15;;;10.02;;
11303;SDS011;5707;49.588;12.148;2024-01-15T06:03:23;10.93;;;9.82;;
11303;SDS011;5707;49.588;12.148;2024-01-15T06:05:48;12.02;;;10.82;;
11303;SDS011;5707;49.588;12.148;2024-01-15T06:08:14;13.18;;;10.18;;
11303;SDS011;5707;49.588;12.148;2024-01-15T06:10:39;10.57;;;9.57;;
11303;SDS011;5707;49.588;12.148;2024-01-15T06:13:05;10.68;;;9.60;;
11303;SDS011;5707;49.588;12.148;2024-01-15T06:15:30;10.40;;;8.48;;
11303;SDS011;5707;49.588;12.148;2024-01-15T06:17:56;8.07;;;6.22;;
11303;SDS011;5707;49.588;12.148;2024-01-15T06:20:21;12.85;;;10.32;;
11303;SDS011;5707;49.588;12.148;2024-01-15T06:22:47;10.90;;;9.48;;
11303;SDS011;5707;49.588;12.148;2024-01-15T06:25:12;9.73;;;8.82;;
11303;SDS011;5707;49.588;12.148;2024-01-15T06:27:38;10.30;;;9.23;;
11303;SDS011;5707;49.588;12.148;2024-01-15T06:30:04;10.38;;;9.38;;
11303;SDS011;5707;49.588;12.148;2024-01-15T06:32:30;12.25;;;9.30;;
11303;SDS011;5707;49.588;12.148;2024-01-15T06:34:56;10.50;;;9.40;;
11303;SDS011;5707;49.588;12.148;2024-01-15T06:37:21;10.30;;;9.20;;
11303;SDS011;5707;49.588;12.148;2024-01-15T06:39:47;11.57;;;10.38;;
11303;SDS011;5707;49.588;12.148;2024-01-15T06:42:12;10.10;;;8.27;;
11303;SDS011;5707;49.588;12.148;2024-01-15T06:44:38;13.50;;;9.77;;
11303;SDS011;5707;49.588;12.148;2024-01-15T06:47:04;10.82;;;8.80;;
11303;SDS011;5707;49.588;12.148;2024-01-15T06:49:30;14.93;;;9.82;;
11303;SDS011;5707;49.588;12.148;2024-01-15T06:51:55;10.35;;;9.25;;
11303;SDS011;5707;49.588;12.148;2024-01-15T06:54:21;10.00;;;9.00;;
11303;SDS011;5707;49.588;12.148;2024-01-15T06:56:47;9.70;;;8.75;;
11303;SDS011;5707;49.588;12.148;2024-01-15T06:59:12;10.73;;;8.75;;
11303;SDS011;5707;49.588;12.148;2024-01-15T07:01:38;10.60;;;9.52;;
11303;SDS011;5707;49.588;12.148;2024-01-15T07:04:03;9.70;;;8.60;;
11303;SDS011;5707;49.588;12.148;2024-01-15T07:06:29;11.07;;;9.15;;
11303;SDS011;5707;49.588;12.148;2024-01-15T07:08:55;10.07;;;9.05;;
11303;SDS011;5707;49.588;12.148;2024-01-15T07:11:21;10.90;;;9.38;;
11303;SDS011;5707;49.588;12.148;2024-01-15T07:13:47;10.43;;;9.18;;
11303;SDS011;5707;49.588;12.148;2024-01-15T07:16:13;13.13;;;9.43;;
11303;SDS011;5707;49.588;12.148;2024-01-15T07:18:38;10.85;;;9.55;;
11303;SDS011;5707;49.588;12.148;2024-01-15T07:21:04;10.23;;;9.13;;
11303;SDS011;5707;49.588;12.148;2024-01-15T07:23:30;10.55;;;9.45;;
11303;SDS011;5707;49.588;12.148;2024-01-15T07:25:56;11.43;;;8.85;;
11303;SDS011;5707;49.588;12.148;2024-01-15T07:28:22;9.63;;;8.82;;
11303;SDS011;5707;49.588;12.148;2024-01-15T07:30:48;11.93;;;9.10;;
11303;SDS011;5707;49.588;12.148;2024-01-15T07:33:13;10.18;;;9.10;;
11303;SDS011;5707;49.588;12.148;2024-01-15T07:35:39;8.80;;;7.38;;
11303;SDS011;5707;49.588;12.148;2024-01-15T07:38:04;9.65;;;8.65;;
11303;SDS011;5707;49.588;12.148;2024-01-15T07:40:30;10.43;;;8.65;;
11303;SDS011;5707;49.588;12.148;2024-01-15T07:42:55;9.85;;;8.73;;
11303;SDS011;5707;49.588;12.148;2024-01-15T07:45:21;9.80;;;8.38;;
11303;SDS011;5707;49.588;12.148;2024-01-15T07:47:46;9.10;;;8.20;;
11303;SDS011;5707;49.588;12.148;2024-01-15T07:50:12;10.68;;;7.90;;
11303;SDS011;5707;49.588;12.148;2024-01-15T07:52:39;9.43;;;8.48;;
11303;SDS011;5707;49.588;12.148;2024-01-15T07:55:06;10.63;;;9.50;;
11303;SDS011;5707;49.588;12.148;2024-01-15T07:57:32;9.35;;;8.48;;
11303;SDS011;5707;49.588;12.148;2024-01-15T07:59:58;8.43;;;7.63;;
11303;SDS011;5707;49.588;12.148;2024-01-15T08:02:23;10.45;;;8.98;;
11303;SDS011;5707;49.588;12.148;2024-01-15T08:04:49;9.48;;;7.57;;
11303;SDS011;5707;49.588;12.148;2024-01-15T08:07:15;10.20;;;9.05;;
11303;SDS011;5707;49.588;12.148;2024-01-15T08:09:40;9.15;;;8.00;;
11303;SDS011;5707;49.588;12.148;2024-01-15T08:12:06;9.30;;;8.40;;
11303;SDS011;5707;49.588;12.148;2024-01-15T08:14:32;8.68;;;7.88;;
11303;SDS011;5707;49.588;12.148;2024-01-15T08:16:58;8.90;;;7.82;;
11303;SDS011;5707;49.588;12.148;2024-01-15T08:19:23;8.93;;;7.60;;
11303;SDS011;5707;49.588;12.148;2024-01-15T08:21:49;7.60;;;6.88;;
11303;SDS011;5707;49.588;12.148;2024-01-15T08:24:15;10.65;;;8.35;;
11303;SDS011;5707;49.588;12.148;2024-01-15T08:26:41;7.35;;;6.65;;
11303;SDS011;5707;49.588;12.148;2024-01-15T08:29:07;7.40;;;6.68;;
11303;SDS011;5707;49.588;12.148;2024-01-15T08:31:33;8.05;;;7.25;;
11303;SDS011;5707;49.588;12.148;2024-01-15T08:33:58;7.85;;;7.05;;
11303;SDS011;5707;49.588;12.148;2024-01-15T08:36:24;8.15;;;7.15;;
11303;SDS011;5707;49.588;12.148;2024-01-15T08:38:50;7.95;;;7.15;;
11303;SDS011;5707;49.588;12.148;2024-01-15T08:41:16;5.85;;;5.25;;
11303;SDS011;5707;49.588;12.148;2024-01-15T08:43:41;8.48;;;6.10;;
11303;SDS011;5707;49.588;12.148;2024-01-15T08:46:07;8.82;;;6.22;;
11303;SDS011;5707;49.588;12.148;2024-01-15T08:48:32;7.43;;;6.72;;
11303;SDS011;5707;49.588;12.148;2024-01-15T08:50:58;8.00;;;7.20;;
11303;SDS011;5707;49.588;12.148;2024-01-15T08:53:23;7.80;;;7.00;;
11303;SDS011;5707;49.588;12.148;2024-01-15T08:55:49;6.70;;;6.07;;
11303;SDS011;5707;49.588;12.148;2024-01-15T08:58:15;6.78;;;6.18;;
11303;SDS011;5707;49.588;12.148;2024-01-15T09:00:40;7.43;;;6.72;;
11303;SDS011;5707;49.588;12.148;2024-01-15T09:03:06;7.78;;;6.25;;
11303;SDS011;5707;49.588;12.148;2024-01-15T09:05:33;6.82;;;6.22;;
11303;SDS011;5707;49.588;12.148;2024-01-15T09:07:59;5.82;;;5.30;;
11303;SDS011;5707;49.588;12.148;2024-01-15T09:10:24;7.28;;;6.20;;
11303;SDS011;5707;49.588;12.148;2024-01-15T09:12:50;8.07;;;6.78;;
11303;SDS011;5707;49.588;12.148;2024-01-15T09:15:16;7.07;;;6.38;;
11303;SDS011;5707;49.588;12.148;2024-01-15T09:17:42;7.03;;;6.43;;
11303;SDS011;5707;49.588;12.148;2024-01-15T09:20:08;7.05;;;6.35;;
11303;SDS011;5707;49.588;12.148;2024-01-15T09:22:34;6.22;;;5.68;;
11303;SDS011;5707;49.588;12.148;2024-01-15T09:25:00;6.97;;;6.28;;
11303;SDS011;5707;49.588;12.148;2024-01-15T09:27:26;5.35;;;4.82;;
11303;SDS011;5707;49.588;12.148;2024-01-15T09:29:52;9.85;;;6.22;;
11303;SDS011;5707;49.588;12.148;2024-01-15T09:32:18;6.60;;;6.00;;
11303;SDS011;5707;49.588;12.148;2024-01-15T09:34:44;6.78;;;6.07;;
11303;SDS011;5707;49.588;12.148;2024-01-15T09:37:11;5.97;;;5.47;;
11303;SDS011;5707;49.588;12.148;2024-01-15T09:39:36;7.25;;;6.53;;
11303;SDS011;5707;49.588;12.148;2024-01-15T09:42:02;5.90;;;5.30;;
11303;SDS011;5707;49.588;12.148;2024-01-15T09:44:29;5.65;;;4.88;;
11303;SDS011;5707;49.588;12.148;2024-01-15T09:46:55;6.18;;;5.57;;
11303;SDS011;5707;49.588;12.148;2024-01-15T09:49:22;6.47;;;5.63;;
11303;SDS011;5707;49.588;12.148;2024-01-15T09:51:48;7.40;;;6.22;;
11303;SDS011;5707;49.588;12.148;2024-01-15T09:54:13;6.13;;;5.45;;
11303;SDS011;5707;49.588;12.148;2024-01-15T09:56:42;6.35;;;5.55;;
11303;SDS011;5707;49.588;12.148;2024-01-15T09:59:11;6.22;;;5.63;;
11303;SDS011;5707;49.588;12.148;2024-01-15T10:01:42;6.40;;;5.80;;
11303;SDS011;5707;49.588;12.148;2024-01-15T10:04:09;6.55;;;5.95;;
11303;SDS011;5707;49.588;12.148;2024-01-15T10:06:35;8.07;;;6.28;;
11303;SDS011;5707;49.588;12.148;2024-01-15T10:09:02;5.07;;;4.57;;
11303;SDS011;5707;49.588;12.148;2024-01-15T10:11:28;5.30;;;4.80;;
11303;SDS011;5707;49.588;12.148;2024-01-15T10:13:56;5.28;;;4.78;;
11303;SDS011;5707;49.588;12.148;2024-01-15T10:16:22;5.45;;;4.97;;
11303;SDS011;5707;49.588;12.148;2024-01-15T10:18:48;5.63;;;5.13;;
11303;SDS011;5707;49.588;12.148;2024-01-15T10:21:14;4.68;;;4.22;;
11303;SDS011;5707;49.588;12.148;2024-01-15T10:23:40;5.40;;;4.90;;
11303;SDS011;5707;49.588;12.148;2024-01-15T10:26:06;5.80;;;5.30;;
11303;SDS011;5707;49.588;12.148;2024-01-15T10:28:32;5.40;;;4.90;;
11303;SDS011;5707;49.588;12.148;2024-01-15T10:30:58;5.68;;;5.07;;
11303;SDS011;5707;49.588;12.148;2024-01-15T10:33:24;5.50;;;5.00;;
11303;SDS011;5707;49.588;12.148;2024-01-15T10:35:50;5.68;;;5.18;;
11303;SDS011;5707;49.588;12.148;2024-01-15T10:38:27;4.47;;;4.05;;
11303;SDS011;5707;49.588;12.148;2024-01-15T10:40:55;4.88;;;4.47;;
11303;SDS011;5707;49.588;12.148;2024-01-15T10:43:21;6.45;;;4.65;;
11303;SDS011;5707;49.588;12.148;2024-01-15T10:45:48;5.55;;;4.97;;
11303;SDS011;5707;49.588;12.148;2024-01-15T10:48:16;5.30;;;4.35;;
11303;SDS011;5707;49.588;12.148;2024-01-15T10:50:42;4.90;;;4.43;;
11303;SDS011;5707;49.588;12.148;2024-01-15T10:53:09;6.45;;;5.30;;
11303;SDS011;5707;49.588;12.148;2024-01-15T10:55:37;5.43;;;4.47;;
11303;SDS011;5707;49.588;12.148;2024-01-15T10:58:06;4.75;;;4.25;;
11303;SDS011;5707;49.588;12.148;2024-01-15T11:00:33;5.50;;;4.88;;
11303;SDS011;5707;49.588;12.148;2024-01-15T11:03:03;4.75;;;4.35;;
11303;SDS011;5707;49.588;12.148;2024-01-15T11:05:38;4.90;;;4.50;;
11303;SDS011;5707;49.588;12.148;2024-01-15T11:08:06;5.93;;;5.40;;
11303;SDS011;5707;49.588;12.148;2024-01-15T11:13:13;4.78;;;4.38;;
11303;SDS011;5707;49.588;12.148;2024-01-15T11:16:05;4.43;;;3.95;;
11303;SDS011;5707;49.588;12.148;2024-01-15T11:18:34;4.05;;;3.22;;
11303;SDS011;5707;49.588;12.148;2024-01-15T11:23:42;6.20;;;5.05;;
11303;SDS011;5707;49.588;12.148;2024-01-15T11:26:27;5.00;;;4.60;;
11303;SDS011;5707;49.588;12.148;2024-01-15T11:28:54;4.43;;;4.13;;
11303;SDS011;5707;49.588;12.148;2024-01-15T11:31:26;4.90;;;4.53;;
11303;SDS011;5707;49.588;12.148;2024-01-15T11:33:52;5.03;;;4.53;;
11303;SDS011;5707;49.588;12.148;2024-01-15T11:36:18;4.75;;;4.20;;
11303;SDS011;5707;49.588;12.148;2024-01-15T11:38:43;4.72;;;4.32;;
11303;SDS011;5707;49.588;12.148;2024-01-15T11:41:15;3.80;;;3.50;;
11303;SDS011;5707;49.588;12.148;2024-01-15T11:43:41;4.78;;;4.28;;
11303;SDS011;5707;49.588;12.148;2024-01-15T11:46:08;4.88;;;4.47;;
11303;SDS011;5707;49.588;12.148;2024-01-15T11:48:44;4.32;;;3.92;;
11303;SDS011;5707;49.588;12.148;2024-01-15T11:51:13;5.15;;;4.75;;
11303;SDS011;5707;49.588;12.148;2024-01-15T11:53:48;4.55;;;4.15;;
11303;SDS011;5707;49.588;12.148;2024-01-15T11:56:18;4.25;;;3.95;;
11303;SDS011;5707;49.588;12.148;2024-01-15T11:58:47;5.40;;;4.93;;
11303;SDS011;5707;49.588;12.148;2024-01-15T12:01:15;5.55;;;5.05;;
11303;SDS011;5707;49.588;12.148;2024-01-15T12:03:41;4.55;;;4.25;;
11303;SDS011;5707;49.588;12.148;2024-01-15T12:06:07;4.45;;;4.05;;
11303;SDS011;5707;49.588;12.148;2024-01-15T12:08:35;5.45;;;4.95;;
11303;SDS011;5707;49.588;12.148;2024-01-15T12:11:00;5.45;;;4.57;;
11303;SDS011;5707;49.588;12.148;2024-01-15T12:13:35;5.15;;;4.53;;
11303;SDS011;5707;49.588;12.148;2024-01-15T12:16:01;5.05;;;4.60;;
11303;SDS011;5707;49.588;12.148;2024-01-15T12:18:29;4.55;;;4.15;;
11303;SDS011;5707;49.588;12.148;2024-01-15T12:20:54;5.68;;;4.35;;
11303;SDS011;5707;49.588;12.148;2024-01-15T12:23:20;5.22;;;4.72;;
11303;SDS011;5707;49.588;12.148;2024-01-15T12:25:45;4.72;;;4.32;;
11303;SDS011;5707;49.588;12.148;2024-01-15T12:28:12;5.00;;;4.63;;
11303;SDS011;5707;49.588;12.148;2024-01-15T12:30:38;5.32;;;4.82;;
11303;SDS011;5707;49.588;12.148;2024-01-15T12:33:04;5.30;;;4.30;;
11303;SDS011;5707;49.588;12.148;2024-01-15T12:35:30;4.80;;;4.20;;
11303;SDS011;5707;49.588;12.148;2024-01-15T12:37:56;4.63;;;4.22;;
11303;SDS011;5707;49.588;12.148;2024-01-15T12:40:22;4.75;;;4.35;;
11303;SDS011;5707;49.588;12.148;2024-01-15T12:42:49;4.97;;;4.50;;
11303;SDS011;5707;49.588;12.148;2024-01-15T12:45:14;4.95;;;4.55;;
11303;SDS011;5707;49.588;12.148;2024-01-15T12:47:40;6.78;;;4.47;;
11303;SDS011;5707;49.588;12.148;2024-01-15T12:50:10;5.07;;;4.57;;
11303;SDS011;5707;49.588;12.148;2024-01-15T12:52:37;4.80;;;4.40;;
11303;SDS011;5707;49.588;12.148;2024-01-15T12:55:04;5.22;;;4.53;;
11303;SDS011;5707;49.588;12.148;2024-01-15T12:57:30;4.78;;;4.32;;
11303;SDS011;5707;49.588;12.148;2024-01-15T12:59:56;4.45;;;4.05;;
11303;SDS011;5707;49.588;12.148;2024-01-15T13:02:21;4.32;;;3.80;;
11303;SDS011;5707;49.588;12.148;2024-01-15T13:04:47;5.88;;;4.13;;
11303;SDS011;5707;49.588;12.148;2024-01-15T13:07:13;5.20;;;4.70;;
11303;SDS011;5707;49.588;12.148;2024-01-15T13:09:38;3.88;;;3.58;;
11303;SDS011;5707;49.588;12.148;2024-01-15T13:12:04;3.78;;;3.47;;
11303;SDS011;5707;49.588;12.148;2024-01-15T13:14:30;4.85;;;4.45;;
11303;SDS011;5707;49.588;12.148;2024-01-15T13:16:56;5.95;;;4.35;;
11303;SDS011;5707;49.588;12.148;2024-01-15T13:19:23;4.38;;;4.03;;
11303;SDS011;5707;49.588;12.148;2024-01-15T13:21:49;4.63;;;4.30;;
11303;SDS011;5707;49.588;12.148;2024-01-15T13:24:18;4.20;;;3.80;;
11303;SDS011;5707;49.588;12.148;2024-01-15T13:26:44;4.32;;;3.95;;
11303;SDS011;5707;49.588;12.148;2024-01-15T13:29:10;4.38;;;3.72;;
11303;SDS011;5707;49.588;12.148;2024-01-15T13:31:36;3.67;;;3.38;;
11303;SDS011;5707;49.588;12.148;2024-01-15T13:34:01;3.42;;;3.13;;
11303;SDS011;5707;49.588;12.148;2024-01-15T13:36:28;3.10;;;2.83;;
11303;SDS011;5707;49.588;12.148;2024-01-15T13:38:53;3.53;;;3.22;;
11303;SDS011;5707;49.588;12.148;2024-01-15T13:41:19;2.92;;;2.72;;
11303;SDS011;5707;49.588;12.148;2024-01-15T13:43:52;3.40;;;3.10;;
11303;SDS011;5707;49.588;12.148;2024-01-15T13:46:19;3.85;;;3.55;;
11303;SDS011;5707;49.588;12.148;2024-01-15T13:48:46;3.60;;;3.28;;
11303;SDS011;5707;49.588;12.148;2024-01-15T13:51:12;3.70;;;3.38;;
11303;SDS011;5707;49.588;12.148;2024-01-15T13:53:39;3.63;;;3.33;;
11303;SDS011;5707;49.588;12.148;2024-01-15T13:56:05;3.97;;;3.58;;
11303;SDS011;5707;49.588;12.148;2024-01-15T13:58:31;3.88;;;3.58;;
11303;SDS011;5707;49.588;12.148;2024-01-15T14:01:00;4.72;;;3.05;;
11303;SDS011;5707;49.588;12.148;2024-01-15T14:03:26;4.57;;;3.85;;
11303;SDS011;5707;49.588;12.148;2024-01-15T14:05:52;4.13;;;3.83;;
11303;SDS011;5707;49.588;12.148;2024-01-15T14:08:17;4.60;;;4.20;;
11303;SDS011;5707;49.588;12.148;2024-01-15T14:10:43;4.68;;;4.03;;
11303;SDS011;5707;49.588;12.148;2024-01-15T14:13:09;5.00;;;4.45;;
11303;SDS011;5707;49.588;12.148;2024-01-15T14:15:34;5.28;;;4.78;;
11303;SDS011;5707;49.588;12.148;2024-01-15T14:18:00;7.90;;;6.47;;
11303;SDS011;5707;49.588;12.148;2024-01-15T14:20:26;4.82;;;4.43;;
11303;SDS011;5707;49.588;12.148;2024-01-15T14:22:52;4.15;;;3.75;;
11303;SDS011;5707;49.588;12.148;2024-01-15T14:25:19;4.45;;;3.83;;
11303;SDS011;5707;49.588;12.148;2024-01-15T14:27:49;3.83;;;3.53;;
11303;SDS011;5707;49.588;12.148;2024-01-15T14:30:15;4.85;;;4.45;;
11303;SDS011;5707;49.588;12.148;2024-01-15T14:32:41;4.35;;;3.45;;
11303;SDS011;5707;49.588;12.148;2024-01-15T14:35:07;3.72;;;3.42;;